createdAt,value
2023-05-21T00:01:56.304Z,13.33
2023-05-21T00:06:59.919Z,13.24
2023-05-21T00:12:04.511Z,13.22
2023-05-21T00:17:07.975Z,13.17
2023-05-21T00:22:12.207Z,13.15
2023-05-21T00:27:15.929Z,13.10
2023-05-21T00:32:19.441Z,13.05
2023-05-21T00:37:25.007Z,13.00
2023-05-21T00:42:30.986Z,12.99
2023-05-21T00:47:35.793Z,13.00
2023-05-21T00:52:42.440Z,12.97
2023-05-21T00:57:46.434Z,12.95
2023-05-21T01:02:50.909Z,12.95
2023-05-21T01:07:56.233Z,12.95
2023-05-21T01:13:00.369Z,12.94
2023-05-21T01:18:03.824Z,12.96
2023-05-21T01:23:07.392Z,12.98
2023-05-21T01:28:10.880Z,13.03
2023-05-21T01:33:23.742Z,13.07
2023-05-21T01:38:34.427Z,13.11
2023-05-21T01:43:40.432Z,13.12
2023-05-21T01:48:44.693Z,13.11
2023-05-21T01:53:48.153Z,13.09
2023-05-21T01:58:53.100Z,13.11
2023-05-21T02:03:58.100Z,13.12
2023-05-21T02:09:02.004Z,13.14
2023-05-21T02:14:05.697Z,13.12
2023-05-21T02:19:10.901Z,13.09
2023-05-21T02:24:14.682Z,13.13
2023-05-21T02:29:18.301Z,13.16
2023-05-21T02:34:22.068Z,13.17
2023-05-21T02:39:27.280Z,13.20
2023-05-21T02:44:30.994Z,13.23
2023-05-21T02:49:34.512Z,13.22
2023-05-21T02:54:38.120Z,13.27
2023-05-21T02:59:41.637Z,13.32
2023-05-21T03:04:49.245Z,13.40
2023-05-21T03:09:52.976Z,13.48
2023-05-21T03:14:56.791Z,13.57
2023-05-21T03:20:00.318Z,13.70
2023-05-21T03:25:04.752Z,13.86
2023-05-21T03:30:09.648Z,14.02
2023-05-21T03:35:13.104Z,14.15
2023-05-21T03:40:16.930Z,14.23
2023-05-21T03:45:20.775Z,14.27
2023-05-21T03:50:24.373Z,14.30
2023-05-21T03:55:27.885Z,14.34
2023-05-21T04:00:33.038Z,14.40
2023-05-21T04:05:36.887Z,14.49
2023-05-21T04:10:40.893Z,14.62
2023-05-21T04:15:45.256Z,14.76
2023-05-21T04:20:50.290Z,14.86
2023-05-21T04:25:54.309Z,14.98
2023-05-21T04:30:57.856Z,15.11
2023-05-21T04:36:01.744Z,15.18
2023-05-21T04:41:05.567Z,15.30
2023-05-21T04:46:09.329Z,15.42
2023-05-21T04:51:12.806Z,15.52
2023-05-21T04:56:19.386Z,15.68
2023-05-21T05:01:24.010Z,15.84
2023-05-21T05:06:27.752Z,16.05
2023-05-21T05:11:31.473Z,16.22
2023-05-21T05:16:35.949Z,16.41
2023-05-21T05:21:39.426Z,16.58
2023-05-21T05:26:42.843Z,16.81
2023-05-21T05:31:46.475Z,17.02
2023-05-21T05:36:49.973Z,17.14
2023-05-21T05:41:53.360Z,17.32
2023-05-21T05:46:57.112Z,17.47
2023-05-21T05:52:01.571Z,17.68
2023-05-21T05:57:05.328Z,17.94
2023-05-21T06:02:08.610Z,18.13
2023-05-21T06:07:12.298Z,18.36
2023-05-21T06:12:16.266Z,18.60
2023-05-21T06:17:19.888Z,18.77
2023-05-21T06:22:25.485Z,19.01
2023-05-21T06:27:29.278Z,19.24
2023-05-21T06:32:32.795Z,19.41
2023-05-21T06:37:36.359Z,19.58
2023-05-21T06:42:39.666Z,19.78
2023-05-21T06:47:43.236Z,19.85
2023-05-21T06:52:46.768Z,19.95
2023-05-21T06:57:50.419Z,20.07
2023-05-21T07:02:54.675Z,20.27
2023-05-21T07:07:58.268Z,20.43
2023-05-21T07:13:01.793Z,20.65
2023-05-21T07:18:05.260Z,20.82
2023-05-21T07:23:09.019Z,21.00
2023-05-21T07:28:12.543Z,21.16
2023-05-21T07:33:16.665Z,21.34
2023-05-21T07:38:20.174Z,21.48
2023-05-21T07:43:24.416Z,21.62
2023-05-21T07:48:28.036Z,21.82
2023-05-21T07:53:32.890Z,21.97
2023-05-21T07:58:36.498Z,22.10
2023-05-21T08:03:40.330Z,22.25
2023-05-21T08:08:43.960Z,22.22
2023-05-21T08:13:47.566Z,22.31
2023-05-21T08:18:51.831Z,22.49
2023-05-21T08:23:55.404Z,22.72
2023-05-21T08:28:59.641Z,22.86
2023-05-21T08:34:03.254Z,23.05
2023-05-21T08:39:06.937Z,23.29
2023-05-21T08:44:13.163Z,23.39
2023-05-21T08:49:19.081Z,23.54
2023-05-21T08:54:23.006Z,23.61
2023-05-21T08:59:27.701Z,23.78
2023-05-21T09:04:32.669Z,23.91
2023-05-21T09:09:47.375Z,24.06
2023-05-21T09:14:51.615Z,24.22
2023-05-21T09:20:16.308Z,24.36
2023-05-21T09:25:28.420Z,24.50
2023-05-21T09:30:35.784Z,24.68
2023-05-21T09:35:47.100Z,24.80
2023-05-21T09:40:50.805Z,24.91
2023-05-21T09:46:01.132Z,25.07
2023-05-21T09:51:16.772Z,25.17
2023-05-21T09:56:25.336Z,25.15
2023-05-21T10:01:31.435Z,25.31
2023-05-21T10:06:42.588Z,25.30
2023-05-21T10:11:49.888Z,25.28
2023-05-21T10:16:54.987Z,25.42
2023-05-21T10:22:01.836Z,25.48
2023-05-21T10:27:06.737Z,25.46
2023-05-21T10:32:13.271Z,25.46
2023-05-21T10:37:17.029Z,25.46
2023-05-21T10:42:32.395Z,25.44
2023-05-21T10:47:57.761Z,25.62
2023-05-21T10:53:40.138Z,25.87
2023-05-21T10:59:07.824Z,26.15
2023-05-21T11:04:12.773Z,26.42
2023-05-21T11:09:16.699Z,26.50
2023-05-21T11:14:31.992Z,26.57
2023-05-21T11:19:44.028Z,26.75
2023-05-21T11:24:49.365Z,26.87
2023-05-21T11:29:56.264Z,26.56
2023-05-21T11:35:02.804Z,26.37
2023-05-21T11:40:20.494Z,26.27
2023-05-21T11:45:28.732Z,26.05
2023-05-21T11:50:34.296Z,25.91
2023-05-21T11:55:43.903Z,25.86
2023-05-21T12:00:51.607Z,26.00
2023-05-21T12:05:55.159Z,26.13
2023-05-21T12:11:00.344Z,26.16
2023-05-21T12:16:06.663Z,26.29
2023-05-21T12:21:12.377Z,26.48
2023-05-21T12:26:16.351Z,26.55
2023-05-21T12:31:22.050Z,26.66
2023-05-21T12:36:30.707Z,26.80
2023-05-21T12:41:34.224Z,27.13
2023-05-21T12:46:37.868Z,27.27
2023-05-21T12:51:41.717Z,27.24
2023-05-21T12:56:46.266Z,27.20
2023-05-21T13:01:49.901Z,27.46
2023-05-21T13:06:53.434Z,27.64
2023-05-21T13:11:57.163Z,27.73
2023-05-21T13:17:01.277Z,27.95
2023-05-21T13:22:05.004Z,27.86
2023-05-21T13:27:08.628Z,27.67
2023-05-21T13:32:12.152Z,27.90
2023-05-21T13:37:15.977Z,28.27
2023-05-21T13:42:20.088Z,28.97
2023-05-21T13:47:23.756Z,30.64
2023-05-21T13:52:27.397Z,34.08
2023-05-21T13:57:31.374Z,37.51
2023-05-21T14:02:35.356Z,41.05
2023-05-21T14:07:40.331Z,43.72
2023-05-21T14:12:46.230Z,45.99
2023-05-21T14:17:49.843Z,48.61
2023-05-21T14:22:53.448Z,51.05
2023-05-21T14:27:57.465Z,53.64
2023-05-21T14:33:01.678Z,55.33
2023-05-21T14:38:05.369Z,56.32
2023-05-21T14:43:09.046Z,55.68
2023-05-21T14:48:13.012Z,57.59
2023-05-21T14:53:16.686Z,59.63
2023-05-21T14:58:20.396Z,60.99
2023-05-21T15:03:24.396Z,61.65
2023-05-21T15:08:28.107Z,60.48
2023-05-21T15:13:31.691Z,60.21
2023-05-21T15:18:35.173Z,60.99
2023-05-21T15:23:38.744Z,60.40
2023-05-21T15:28:42.317Z,60.58
2023-05-21T15:33:45.930Z,59.48
2023-05-21T15:38:49.399Z,58.02
2023-05-21T15:43:52.977Z,58.39
2023-05-21T15:48:56.476Z,58.69
2023-05-21T15:54:00.409Z,57.44
2023-05-21T15:59:04.329Z,55.55
2023-05-21T16:04:07.962Z,54.56
2023-05-21T16:09:11.634Z,54.37
2023-05-21T16:14:15.389Z,53.03
2023-05-21T16:19:18.927Z,52.03
2023-05-21T16:24:22.422Z,50.71
2023-05-21T16:29:26.249Z,49.76
2023-05-21T16:34:29.961Z,47.82
2023-05-21T16:39:33.380Z,46.12
2023-05-21T16:44:38.220Z,44.39
2023-05-21T16:49:41.747Z,43.61
2023-05-21T16:54:49.040Z,43.32
2023-05-21T16:59:52.562Z,43.16
2023-05-21T17:04:56.179Z,42.23
2023-05-21T17:09:59.798Z,39.77
2023-05-21T17:15:04.392Z,37.68
2023-05-21T17:20:08.779Z,34.94
2023-05-21T17:25:12.444Z,32.72
2023-05-21T17:30:15.919Z,31.94
2023-05-21T17:35:19.424Z,32.89
2023-05-21T17:40:25.063Z,33.51
2023-05-21T17:45:28.769Z,33.18
2023-05-21T17:50:32.321Z,32.07
2023-05-21T17:55:36.080Z,30.62
2023-05-21T18:00:39.795Z,30.17
2023-05-21T18:05:43.479Z,29.43
2023-05-21T18:10:48.430Z,28.85
2023-05-21T18:15:51.971Z,28.35
2023-05-21T18:20:55.426Z,27.54
2023-05-21T18:25:58.976Z,26.45
2023-05-21T18:31:04.517Z,25.04
2023-05-21T18:36:08.262Z,23.92
2023-05-21T18:41:11.629Z,23.02
2023-05-21T18:46:15.370Z,22.25
2023-05-21T18:51:18.914Z,21.61
2023-05-21T18:56:22.382Z,21.08
2023-05-21T19:01:26.071Z,20.65
2023-05-21T19:06:29.476Z,20.29
2023-05-21T19:11:34.694Z,19.98
2023-05-21T19:16:38.538Z,19.70
2023-05-21T19:21:42.222Z,19.41
2023-05-21T19:26:45.780Z,19.13
2023-05-21T19:31:49.190Z,18.86
2023-05-21T19:36:54.003Z,18.58
2023-05-21T19:41:58.053Z,18.34
2023-05-21T19:47:02.221Z,18.10
2023-05-21T19:52:06.463Z,17.85
2023-05-21T19:57:12.275Z,17.63
2023-05-21T20:02:17.459Z,17.41
2023-05-21T20:07:20.869Z,17.16
2023-05-21T20:12:24.380Z,16.93
2023-05-21T20:17:28.996Z,16.72
2023-05-21T20:22:33.349Z,16.55
2023-05-21T20:27:39.229Z,16.39
2023-05-21T20:32:42.904Z,16.19
2023-05-21T20:37:47.377Z,16.00
2023-05-21T20:42:53.759Z,15.81
2023-05-21T20:47:58.034Z,15.61
2023-05-21T20:53:02.275Z,15.40
2023-05-21T20:58:05.949Z,15.21
2023-05-21T21:03:11.740Z,15.07
2023-05-21T21:08:16.559Z,14.91
2023-05-21T21:13:20.077Z,14.75
2023-05-21T21:18:23.593Z,14.64
2023-05-21T21:23:30.382Z,14.49
2023-05-21T21:28:33.907Z,14.33
2023-05-21T21:33:37.541Z,14.18
2023-05-21T21:38:41.135Z,14.05
2023-05-21T21:43:44.758Z,14.01
2023-05-21T21:48:48.189Z,13.94
2023-05-21T21:53:51.784Z,13.81
2023-05-21T21:58:55.404Z,13.68
2023-05-21T22:03:59.489Z,13.58
2023-05-21T22:09:02.975Z,13.49
2023-05-21T22:14:07.080Z,13.41
2023-05-21T22:19:13.117Z,13.40
2023-05-21T22:24:30.796Z,13.38
2023-05-21T22:29:34.936Z,13.31
2023-05-21T22:34:38.451Z,13.27
2023-05-21T22:39:42.069Z,13.22
2023-05-21T22:44:45.794Z,13.18
2023-05-21T22:49:49.510Z,13.13
2023-05-21T22:54:53.956Z,13.10
2023-05-21T22:59:57.564Z,13.05
2023-05-21T23:05:01.514Z,12.99
2023-05-21T23:10:05.720Z,12.90
2023-05-21T23:15:10.367Z,12.77
2023-05-21T23:20:13.888Z,12.62
2023-05-21T23:25:18.164Z,12.49
2023-05-21T23:30:21.537Z,12.36
2023-05-21T23:35:25.353Z,12.24
2023-05-21T23:40:28.756Z,12.12
2023-05-21T23:45:32.388Z,11.99
2023-05-21T23:50:36.037Z,11.88
2023-05-21T23:55:39.506Z,11.79
